サルタ の空港の天気 - METARとTAF

サルタ空港 ( SASA / SLA ) - アルゼンチン サルタ州、Salta
飛行場実況気象(Metar)
観測時間10/22 09:00 ART (10/22 12:00 UTC)
風向・風速北東 3m/s
視程10km以上
天気現象
全天の8割程度の雲 雲底高度 910m
全天を覆う雲 雲底高度 3050m
気温21℃
湿度69%
気圧1019hPa
METARSASA 221200Z 05005KT 9999 BKN030 OVC100 21/15 Q1019
過去の天気等 Google飛行場航空写真 Wunderground天気予報

過去48時間のMETAR

飛行場予報(TAF)
発表時間: 10/22 08:00 ART (10/22 11:00 UTC)
予報対象時間: 22日9時 ART ~ 23日9時 ART
風向・風速北北東 3m/s
視程10km以上
全天の8割程度の雲 雲底高度 910m
22日11時 ART ~ 22日14時 ART に徐々に
風向・風速北東 5m/s
視程10km以上
全天の4割程度の雲 雲底高度 910m
少しの塔状積雲 雲底高度 1070m
22日21時 ART ~ 22日24時 ART に徐々に
風向・風速北西 3m/s
視程10km以上
全天の8割程度の雲 雲底高度 610m
TAF SASA 221100Z 2212/2312 02005KT 9999 BKN030 TX28/2218Z TN18/2310Z
BECMG 2214/2217 05010KT 9999 SCT030 FEW035TCU
BECMG 2300/2303 32005KT 9999 BKN020